createdAt,value
2023-04-18T00:01:08.033Z,20.73
2023-04-18T00:03:38.045Z,18.67
2023-04-18T00:06:06.888Z,20.40
2023-04-18T00:08:36.518Z,19.87
2023-04-18T00:11:05.033Z,18.67
2023-04-18T00:13:33.404Z,21.50
2023-04-18T00:16:02.485Z,18.83
2023-04-18T00:18:31.058Z,18.53
2023-04-18T00:20:59.946Z,18.07
2023-04-18T00:23:30.205Z,17.03
2023-04-18T00:26:00.637Z,17.33
2023-04-18T00:28:29.225Z,16.40
2023-04-18T00:30:58.060Z,17.53
2023-04-18T00:33:26.303Z,17.33
2023-04-18T00:35:55.192Z,16.50
2023-04-18T00:38:23.696Z,17.73
2023-04-18T00:40:52.285Z,14.63
2023-04-18T00:43:24.715Z,20.23
2023-04-18T00:45:53.396Z,16.97
2023-04-18T00:48:22.030Z,18.87
2023-04-18T00:50:50.795Z,15.93
2023-04-18T00:53:19.029Z,19.07
2023-04-18T00:55:48.183Z,17.33
2023-04-18T00:58:17.551Z,18.80
2023-04-18T01:00:47.948Z,18.27
2023-04-18T01:03:18.377Z,17.57
2023-04-18T01:05:48.025Z,18.07
2023-04-18T01:08:16.597Z,20.77
2023-04-18T01:10:45.157Z,19.93
2023-04-18T01:13:15.261Z,20.10
2023-04-18T01:15:44.868Z,23.77
2023-04-18T01:18:16.798Z,15.80
2023-04-18T01:20:47.778Z,18.73
2023-04-18T01:23:16.929Z,20.13
2023-04-18T01:25:49.214Z,21.83
2023-04-18T01:28:21.258Z,17.97
2023-04-18T01:30:50.469Z,18.63
2023-04-18T01:33:18.673Z,19.67
2023-04-18T01:35:49.865Z,21.90
2023-04-18T01:38:18.224Z,17.20
2023-04-18T01:40:48.672Z,20.87
2023-04-18T01:43:16.982Z,19.20
2023-04-18T01:45:45.791Z,20.60
2023-04-18T01:48:14.351Z,23.60
2023-04-18T01:50:43.897Z,20.87
2023-04-18T01:53:12.294Z,19.77
2023-04-18T01:55:40.936Z,19.60
2023-04-18T01:58:10.748Z,24.53
2023-04-18T02:00:39.145Z,22.97
2023-04-18T02:03:07.495Z,23.27
2023-04-18T02:05:37.438Z,27.60
2023-04-18T02:08:07.272Z,23.03
2023-04-18T02:10:35.736Z,23.67
2023-04-18T02:13:04.050Z,25.90
2023-04-18T02:15:34.280Z,25.17
2023-04-18T02:18:02.976Z,23.53
2023-04-18T02:20:33.503Z,24.23
2023-04-18T02:23:03.674Z,21.57
2023-04-18T02:25:32.117Z,25.63
2023-04-18T02:28:00.800Z,26.93
2023-04-18T02:30:34.193Z,20.07
2023-04-18T02:33:04.804Z,24.80
2023-04-18T02:35:33.406Z,22.43
2023-04-18T02:38:01.773Z,23.00
2023-04-18T02:40:30.300Z,26.50
2023-04-18T02:43:02.089Z,24.23
2023-04-18T02:45:31.123Z,23.93
2023-04-18T02:48:02.997Z,25.60
2023-04-18T02:50:32.854Z,20.87
2023-04-18T02:53:01.612Z,25.10
2023-04-18T02:55:44.412Z,24.53
2023-04-18T02:58:12.834Z,24.13
2023-04-18T03:00:41.439Z,22.83
2023-04-18T03:03:29.587Z,21.40
2023-04-18T03:06:21.488Z,24.30
2023-04-18T03:08:49.786Z,22.50
2023-04-18T03:11:18.625Z,22.90
2023-04-18T03:13:47.217Z,23.10
2023-04-18T03:16:17.043Z,24.63
2023-04-18T03:18:47.035Z,18.87
2023-04-18T03:21:15.814Z,25.10
2023-04-18T03:23:44.275Z,20.37
2023-04-18T03:26:13.875Z,21.23
2023-04-18T03:28:44.001Z,25.03
2023-04-18T03:31:12.781Z,19.90
2023-04-18T03:33:45.568Z,22.90
2023-04-18T03:36:18.300Z,23.27
2023-04-18T03:38:47.047Z,21.33
2023-04-18T03:41:15.808Z,22.27
2023-04-18T03:43:44.290Z,22.70
2023-04-18T03:46:13.641Z,20.03
2023-04-18T03:48:42.142Z,24.00
2023-04-18T03:51:14.883Z,22.13
2023-04-18T03:53:43.320Z,19.67
2023-04-18T03:56:11.957Z,20.97
2023-04-18T03:58:48.571Z,23.73
2023-04-18T04:01:17.759Z,22.70
2023-04-18T04:03:46.503Z,21.77
2023-04-18T04:06:18.370Z,24.80
2023-04-18T04:08:46.739Z,20.60
2023-04-18T04:11:19.063Z,20.23
2023-04-18T04:13:47.398Z,22.10
2023-04-18T04:16:18.784Z,23.60
2023-04-18T04:18:49.510Z,26.83
2023-04-18T04:21:24.011Z,20.40
2023-04-18T04:23:54.503Z,26.53
2023-04-18T04:26:31.768Z,25.03
2023-04-18T04:29:10.063Z,18.87
2023-04-18T04:31:40.510Z,22.60
2023-04-18T04:34:09.695Z,27.10
2023-04-18T04:36:41.216Z,21.37
2023-04-18T04:39:11.567Z,25.50
2023-04-18T04:42:04.450Z,29.10
2023-04-18T04:44:42.869Z,23.20
2023-04-18T04:47:12.228Z,22.20
2023-04-18T04:49:41.264Z,26.77
2023-04-18T04:52:11.199Z,21.10
2023-04-18T04:54:40.044Z,21.17
2023-04-18T04:57:11.254Z,23.77
2023-04-18T04:59:39.918Z,21.53
2023-04-18T05:02:08.658Z,20.23
2023-04-18T05:04:37.753Z,23.97
2023-04-18T05:07:07.169Z,21.80
2023-04-18T05:09:36.795Z,24.27
2023-04-18T05:12:05.891Z,23.50
2023-04-18T05:14:34.194Z,25.23
2023-04-18T05:17:04.146Z,23.73
2023-04-18T05:19:32.460Z,22.60
2023-04-18T05:22:01.304Z,19.83
2023-04-18T05:24:29.846Z,22.37
2023-04-18T05:26:59.745Z,20.33
2023-04-18T05:29:27.850Z,20.47
2023-04-18T05:31:56.767Z,19.63
2023-04-18T05:34:24.854Z,18.77
2023-04-18T05:36:53.539Z,24.83
2023-04-18T05:39:21.651Z,20.60
2023-04-18T05:41:50.376Z,23.60
2023-04-18T05:44:20.145Z,27.40
2023-04-18T05:46:51.364Z,21.97
2023-04-18T05:49:19.686Z,19.03
2023-04-18T05:51:49.733Z,25.63
2023-04-18T05:54:18.337Z,21.70
2023-04-18T05:56:46.978Z,22.40
2023-04-18T05:59:15.349Z,20.87
2023-04-18T06:01:45.347Z,22.83
2023-04-18T06:04:14.177Z,19.33
2023-04-18T06:06:43.377Z,19.23
2023-04-18T06:09:11.589Z,21.90
2023-04-18T06:11:40.469Z,19.77
2023-04-18T06:14:08.782Z,19.17
2023-04-18T06:16:38.063Z,28.23
2023-04-18T06:19:08.023Z,18.40
2023-04-18T06:21:36.851Z,22.77
2023-04-18T06:24:05.994Z,22.30
2023-04-18T06:26:34.712Z,20.93
2023-04-18T06:29:03.293Z,21.23
2023-04-18T06:31:31.773Z,23.40
2023-04-18T06:33:59.996Z,22.63
2023-04-18T06:36:30.037Z,18.70
2023-04-18T06:38:58.278Z,23.83
2023-04-18T06:41:27.014Z,22.03
2023-04-18T06:44:03.831Z,23.83
2023-04-18T06:46:33.221Z,22.13
2023-04-18T06:49:01.620Z,19.40
2023-04-18T06:51:31.563Z,20.03
2023-04-18T06:53:59.957Z,23.53
2023-04-18T06:56:29.594Z,20.83
2023-04-18T06:58:58.058Z,26.57
2023-04-18T07:01:26.602Z,22.93
2023-04-18T07:03:54.921Z,23.03
2023-04-18T07:06:23.380Z,20.20
2023-04-18T07:08:55.916Z,24.47
2023-04-18T07:11:24.548Z,19.90
2023-04-18T07:13:52.836Z,20.67
2023-04-18T07:16:21.817Z,20.33
2023-04-18T07:18:51.603Z,19.60
2023-04-18T07:21:20.826Z,22.97
2023-04-18T07:23:49.000Z,21.87
2023-04-18T07:26:19.023Z,20.67
2023-04-18T07:28:47.390Z,20.67
2023-04-18T07:31:16.547Z,25.13
2023-04-18T07:33:45.167Z,24.50
2023-04-18T07:36:13.896Z,20.20
2023-04-18T07:38:42.573Z,20.90
2023-04-18T07:41:11.269Z,18.20
2023-04-18T07:43:40.767Z,19.50
2023-04-18T07:46:09.630Z,19.77
2023-04-18T07:48:37.989Z,21.00
2023-04-18T07:51:06.671Z,21.03
2023-04-18T07:53:34.973Z,19.77
2023-04-18T07:56:03.394Z,21.73
2023-04-18T07:58:31.670Z,21.80
2023-04-18T08:01:01.723Z,18.33
2023-04-18T08:03:30.318Z,21.17
2023-04-18T08:05:59.001Z,20.30
2023-04-18T08:08:27.149Z,21.10
2023-04-18T08:10:55.802Z,22.70
2023-04-18T08:13:24.305Z,22.67
2023-04-18T08:15:53.343Z,19.70
2023-04-18T08:18:23.871Z,23.73
2023-04-18T08:20:52.536Z,20.17
2023-04-18T08:23:20.686Z,21.00
2023-04-18T08:25:49.200Z,22.10
2023-04-18T08:28:17.465Z,17.67
2023-04-18T08:30:48.749Z,18.30
2023-04-18T08:33:17.077Z,22.27
2023-04-18T08:35:46.967Z,19.97
2023-04-18T08:38:17.170Z,20.87
2023-04-18T08:40:46.544Z,20.50
2023-04-18T08:43:15.879Z,19.75
2023-04-18T08:45:46.104Z,20.57
2023-04-18T08:48:14.951Z,19.42
2023-04-18T08:50:43.714Z,19.88
2023-04-18T08:53:13.412Z,16.15
2023-04-18T08:55:42.021Z,14.30
2023-04-18T08:58:12.690Z,18.13
2023-04-18T09:00:41.658Z,17.65
2023-04-18T09:03:15.563Z,18.35
2023-04-18T09:05:46.870Z,17.00
2023-04-18T09:08:25.824Z,18.08
2023-04-18T09:10:54.358Z,19.10
2023-04-18T09:13:41.071Z,20.00
2023-04-18T09:16:09.646Z,18.73
2023-04-18T09:18:38.306Z,19.45
2023-04-18T09:21:19.384Z,19.73
2023-04-18T09:23:50.365Z,21.90
2023-04-18T09:26:33.359Z,17.65
2023-04-18T09:29:03.250Z,15.65
2023-04-18T09:31:31.879Z,18.13
2023-04-18T09:34:02.095Z,17.42
2023-04-18T09:36:31.398Z,18.00
2023-04-18T09:39:02.045Z,17.55
2023-04-18T09:41:32.657Z,20.23
2023-04-18T09:44:14.490Z,23.15
2023-04-18T09:46:46.849Z,20.98
2023-04-18T09:49:16.707Z,19.98
2023-04-18T09:51:46.309Z,17.02
2023-04-18T09:54:17.636Z,19.10
2023-04-18T09:56:47.581Z,20.65
2023-04-18T09:59:21.312Z,20.15
2023-04-18T10:01:51.777Z,17.95
2023-04-18T10:04:20.444Z,22.55
2023-04-18T10:06:49.416Z,19.75
2023-04-18T10:09:19.337Z,20.50
2023-04-18T10:11:48.125Z,21.85
2023-04-18T10:14:18.137Z,22.63
2023-04-18T10:16:48.655Z,18.15
2023-04-18T10:19:24.281Z,19.08
2023-04-18T10:21:54.273Z,18.88
2023-04-18T10:24:49.521Z,19.85
2023-04-18T10:27:18.974Z,18.25
2023-04-18T10:29:51.234Z,17.80
2023-04-18T10:32:20.610Z,20.00
2023-04-18T10:34:49.854Z,18.50
2023-04-18T10:37:18.944Z,19.50
2023-04-18T10:39:57.250Z,23.75
2023-04-18T10:42:58.979Z,20.63
2023-04-18T10:45:28.823Z,18.50
2023-04-18T10:48:23.015Z,18.52
2023-04-18T10:51:14.225Z,17.35
2023-04-18T10:53:49.782Z,22.45
2023-04-18T10:56:19.508Z,18.70
2023-04-18T10:58:52.319Z,22.52
2023-04-18T11:01:30.322Z,24.23
2023-04-18T11:04:01.618Z,17.13
2023-04-18T11:06:31.341Z,26.67
2023-04-18T11:09:12.506Z,17.80
2023-04-18T11:11:42.461Z,22.05
2023-04-18T11:14:12.157Z,21.33
2023-04-18T11:16:41.374Z,19.45
2023-04-18T11:19:20.952Z,17.30
2023-04-18T11:21:49.275Z,18.10
2023-04-18T11:24:24.696Z,18.05
2023-04-18T11:26:56.176Z,19.77
2023-04-18T11:29:25.054Z,17.70
2023-04-18T11:31:56.842Z,19.45
2023-04-18T11:34:31.348Z,17.55
2023-04-18T11:36:59.663Z,16.73
2023-04-18T11:39:28.370Z,17.45
2023-04-18T11:42:01.366Z,18.45
2023-04-18T11:44:30.028Z,16.90
2023-04-18T11:46:58.509Z,17.70
2023-04-18T11:49:28.850Z,16.75
2023-04-18T11:51:57.458Z,16.45
2023-04-18T11:54:40.029Z,18.27
2023-04-18T11:57:21.288Z,18.52
2023-04-18T11:59:51.520Z,16.60
2023-04-18T12:02:21.145Z,20.13
2023-04-18T12:04:54.641Z,17.42
2023-04-18T12:07:37.763Z,20.13
2023-04-18T12:10:08.837Z,18.52
2023-04-18T12:12:38.514Z,16.38
2023-04-18T12:15:10.093Z,16.98
2023-04-18T12:17:39.118Z,16.52
2023-04-18T12:20:09.987Z,17.80
2023-04-18T12:22:43.926Z,14.63
2023-04-18T12:25:27.874Z,18.77
2023-04-18T12:28:01.615Z,17.38
2023-04-18T12:30:31.763Z,18.45
2023-04-18T12:33:02.083Z,16.73
2023-04-18T12:35:32.394Z,15.13
2023-04-18T12:38:02.346Z,17.50
2023-04-18T12:40:31.592Z,14.52
2023-04-18T12:43:03.409Z,16.23
2023-04-18T12:45:32.859Z,16.23
2023-04-18T12:48:01.280Z,19.25
2023-04-18T12:50:30.037Z,15.82
2023-04-18T12:53:01.110Z,19.55
2023-04-18T12:55:29.904Z,14.60
2023-04-18T12:57:58.838Z,15.18
2023-04-18T13:00:31.180Z,12.82
2023-04-18T13:03:00.843Z,14.30
2023-04-18T13:05:33.506Z,15.52
2023-04-18T13:10:34.088Z,12.18
2023-04-18T13:13:02.253Z,14.00
2023-04-18T13:15:32.194Z,12.23
2023-04-18T13:18:04.568Z,14.07
2023-04-18T13:20:33.785Z,11.90
2023-04-18T13:23:03.832Z,14.00
2023-04-18T13:25:32.704Z,15.77
2023-04-18T13:28:01.238Z,13.50
2023-04-18T13:30:31.985Z,14.50
2023-04-18T13:33:00.390Z,12.95
2023-04-18T13:35:29.243Z,11.25
2023-04-18T13:37:57.325Z,14.15
2023-04-18T13:40:26.460Z,11.32
2023-04-18T13:42:54.695Z,10.88
2023-04-18T13:45:23.250Z,14.50
2023-04-18T13:47:52.779Z,13.55
2023-04-18T13:50:21.413Z,10.95
2023-04-18T13:52:51.871Z,14.85
2023-04-18T13:55:21.057Z,11.77
2023-04-18T13:57:49.381Z,11.68
2023-04-18T14:00:19.465Z,15.68
2023-04-18T14:02:47.806Z,14.10
2023-04-18T14:05:17.890Z,14.05
2023-04-18T14:07:46.250Z,13.27
2023-04-18T14:10:14.889Z,12.23
2023-04-18T14:12:43.294Z,14.38
2023-04-18T14:15:12.541Z,14.18
2023-04-18T14:17:42.245Z,12.32
2023-04-18T14:20:15.497Z,10.90
2023-04-18T14:22:45.100Z,15.65
2023-04-18T14:25:14.275Z,15.07
2023-04-18T14:27:42.508Z,13.00
2023-04-18T14:30:12.362Z,15.63
2023-04-18T14:32:40.602Z,13.63
2023-04-18T14:35:11.061Z,15.75
2023-04-18T14:37:39.390Z,17.83
2023-04-18T14:40:12.332Z,14.48
2023-04-18T14:42:40.565Z,13.20
2023-04-18T14:45:11.251Z,13.90
2023-04-18T14:47:40.070Z,13.40
2023-04-18T14:50:11.779Z,14.57
2023-04-18T14:52:40.260Z,12.77
2023-04-18T14:55:11.205Z,14.73
2023-04-18T14:57:39.891Z,18.40
2023-04-18T15:00:11.127Z,17.08
2023-04-18T15:02:40.334Z,15.90
2023-04-18T15:05:09.938Z,17.00
2023-04-18T15:07:38.356Z,13.20
2023-04-18T15:10:08.444Z,15.65
2023-04-18T15:12:37.866Z,15.07
2023-04-18T15:15:07.535Z,17.08
2023-04-18T15:17:35.910Z,13.98
2023-04-18T15:20:07.049Z,11.73
2023-04-18T15:22:35.589Z,14.73
2023-04-18T15:25:05.102Z,15.85
2023-04-18T15:27:33.311Z,15.95
2023-04-18T15:30:03.719Z,11.38
2023-04-18T15:32:32.685Z,14.30
2023-04-18T15:35:01.313Z,15.82
2023-04-18T15:37:29.710Z,13.13
2023-04-18T15:39:58.308Z,16.80
2023-04-18T15:42:26.650Z,12.15
2023-04-18T15:44:55.077Z,13.48
2023-04-18T15:47:24.784Z,16.77
2023-04-18T15:49:53.389Z,14.25
2023-04-18T15:52:21.960Z,14.88
2023-04-18T15:54:51.844Z,11.77
2023-04-18T15:57:21.057Z,14.60
2023-04-18T15:59:49.622Z,14.00
2023-04-18T16:02:17.903Z,17.25
2023-04-18T16:04:47.860Z,12.40
2023-04-18T16:07:16.867Z,17.83
2023-04-18T16:09:45.470Z,12.15
2023-04-18T16:12:13.847Z,15.65
2023-04-18T16:14:42.491Z,12.75
2023-04-18T16:17:11.084Z,10.18
2023-04-18T16:19:40.899Z,11.07
2023-04-18T16:22:12.127Z,14.90
2023-04-18T16:24:42.247Z,21.17
2023-04-18T16:27:10.545Z,16.67
2023-04-18T16:29:39.091Z,15.57
2023-04-18T16:32:08.338Z,13.88
2023-04-18T16:34:36.983Z,12.60
2023-04-18T16:37:05.498Z,13.38
2023-04-18T16:39:35.367Z,14.55
2023-04-18T16:42:03.845Z,14.18
2023-04-18T16:44:33.147Z,12.55
2023-04-18T16:47:01.608Z,12.85
2023-04-18T16:49:30.298Z,12.85
2023-04-18T16:51:58.547Z,14.05
2023-04-18T16:54:27.278Z,15.93
2023-04-18T16:56:57.042Z,14.00
2023-04-18T16:59:26.020Z,13.07
2023-04-18T17:01:54.725Z,13.70
2023-04-18T17:04:26.865Z,15.43
2023-04-18T17:06:55.302Z,14.07
2023-04-18T17:09:24.071Z,14.25
2023-04-18T17:11:52.326Z,9.98
2023-04-18T17:14:22.470Z,12.25
2023-04-18T17:16:53.321Z,11.52
2023-04-18T17:19:22.437Z,13.85
2023-04-18T17:21:51.151Z,12.98
2023-04-18T17:24:22.373Z,12.93
2023-04-18T17:26:51.030Z,12.93
2023-04-18T17:29:19.584Z,13.25
2023-04-18T17:31:49.235Z,13.98
2023-04-18T17:34:18.038Z,13.35
2023-04-18T17:36:46.642Z,14.15
2023-04-18T17:39:16.840Z,13.30
2023-04-18T17:41:46.894Z,12.43
2023-04-18T17:44:15.590Z,14.07
2023-04-18T17:46:43.930Z,10.88
2023-04-18T17:49:14.067Z,12.50
2023-04-18T17:51:42.497Z,15.93
2023-04-18T17:54:13.321Z,14.50
2023-04-18T17:56:41.601Z,14.77
2023-04-18T17:59:10.945Z,14.77
2023-04-18T18:01:39.182Z,15.35
2023-04-18T18:04:07.945Z,13.00
2023-04-18T18:06:37.965Z,16.15
2023-04-18T18:09:07.282Z,15.20
2023-04-18T18:11:36.038Z,14.20
2023-04-18T18:14:05.022Z,14.85
2023-04-18T18:16:33.485Z,14.60
2023-04-18T18:19:02.153Z,14.65
2023-04-18T18:21:30.464Z,17.60
2023-04-18T18:24:00.419Z,20.35
2023-04-18T18:26:28.794Z,12.52
2023-04-18T18:28:57.359Z,15.80
2023-04-18T18:31:26.242Z,15.18
2023-04-18T18:33:54.830Z,13.73
2023-04-18T18:36:23.198Z,12.30
2023-04-18T18:38:51.702Z,14.50
2023-04-18T18:41:22.567Z,13.68
2023-04-18T18:43:51.682Z,14.93
2023-04-18T18:46:20.516Z,16.67
2023-04-18T18:48:49.813Z,15.23
2023-04-18T18:51:19.408Z,15.07
2023-04-18T18:53:48.061Z,13.68
2023-04-18T18:56:16.453Z,12.52
2023-04-18T18:58:46.814Z,15.35
2023-04-18T19:01:15.478Z,13.43
2023-04-18T19:03:44.127Z,12.88
2023-04-18T19:06:12.646Z,15.80
2023-04-18T19:08:41.323Z,13.70
2023-04-18T19:11:10.318Z,14.32
2023-04-18T19:13:39.016Z,12.15
2023-04-18T19:16:08.992Z,14.50
2023-04-18T19:18:37.550Z,18.08
2023-04-18T19:21:06.211Z,13.82
2023-04-18T19:23:35.912Z,13.95
2023-04-18T19:26:04.324Z,16.67
2023-04-18T19:28:33.152Z,16.20
2023-04-18T19:31:01.858Z,14.35
2023-04-18T19:33:32.002Z,18.17
2023-04-18T19:36:00.310Z,15.48
2023-04-18T19:38:29.175Z,19.25
2023-04-18T19:40:57.675Z,17.25
2023-04-18T19:43:26.623Z,18.73
2023-04-18T19:45:55.371Z,19.42
2023-04-18T19:48:24.046Z,19.02
2023-04-18T19:50:53.486Z,19.17
2023-04-18T19:53:23.441Z,18.05
2023-04-18T19:55:51.676Z,16.65
2023-04-18T19:58:36.478Z,18.13
2023-04-18T20:01:06.071Z,16.40
2023-04-18T20:03:34.932Z,17.15
2023-04-18T20:06:05.509Z,13.93
2023-04-18T20:08:35.773Z,17.70
2023-04-18T20:11:04.428Z,19.75
2023-04-18T20:13:32.901Z,19.60
2023-04-18T20:16:01.253Z,15.80
2023-04-18T20:18:32.014Z,16.75
2023-04-18T20:21:00.250Z,13.10
2023-04-18T20:23:30.262Z,18.20
2023-04-18T20:25:58.585Z,20.13
2023-04-18T20:28:27.133Z,14.40
2023-04-18T20:30:55.499Z,15.40
2023-04-18T20:33:24.258Z,17.77
2023-04-18T20:35:53.763Z,15.52
2023-04-18T20:38:25.996Z,13.95
2023-04-18T20:40:57.950Z,16.15
2023-04-18T20:43:26.807Z,15.60
2023-04-18T20:45:57.766Z,16.23
2023-04-18T20:48:26.329Z,14.15
2023-04-18T20:50:54.521Z,14.60
2023-04-18T20:53:26.002Z,16.20
2023-04-18T20:55:55.821Z,17.05
2023-04-18T20:58:24.520Z,13.45
2023-04-18T21:00:53.364Z,16.98
2023-04-18T21:03:22.056Z,15.63
2023-04-18T21:05:50.443Z,16.75
2023-04-18T21:08:19.291Z,19.00
2023-04-18T21:10:47.497Z,14.80
2023-04-18T21:13:17.504Z,17.93
2023-04-18T21:15:45.762Z,20.30
2023-04-18T21:18:14.366Z,18.13
2023-04-18T21:20:42.572Z,14.32
2023-04-18T21:23:11.134Z,15.87
2023-04-18T21:25:39.440Z,19.30
2023-04-18T21:28:08.905Z,15.50
2023-04-18T21:30:38.624Z,21.13
2023-04-18T21:33:07.108Z,22.13
2023-04-18T21:35:35.298Z,19.90
2023-04-18T21:38:03.797Z,19.90
2023-04-18T21:40:33.315Z,20.10
2023-04-18T21:43:02.108Z,20.30
2023-04-18T21:45:30.588Z,18.40
2023-04-18T21:48:00.747Z,24.57
2023-04-18T21:50:28.887Z,25.07
2023-04-18T21:52:57.523Z,18.53
2023-04-18T21:55:25.787Z,19.60
2023-04-18T21:57:55.131Z,21.13
2023-04-18T22:00:23.698Z,20.80
2023-04-18T22:02:52.492Z,17.40
2023-04-18T22:05:22.458Z,16.57
2023-04-18T22:07:58.035Z,19.20
2023-04-18T22:10:26.831Z,19.97
2023-04-18T22:12:55.968Z,24.53
2023-04-18T22:15:26.856Z,20.80
2023-04-18T22:17:56.052Z,21.97
2023-04-18T22:20:26.900Z,18.27
2023-04-18T22:22:55.542Z,19.83
2023-04-18T22:25:23.887Z,21.00
2023-04-18T22:27:52.308Z,18.17
2023-04-18T22:30:20.781Z,19.23
2023-04-18T22:32:49.567Z,20.00
2023-04-18T22:35:18.150Z,16.57
2023-04-18T22:37:48.161Z,17.40
2023-04-18T22:40:16.834Z,17.07
2023-04-18T22:42:45.391Z,16.57
2023-04-18T22:45:13.779Z,18.33
2023-04-18T22:47:42.308Z,17.93
2023-04-18T22:50:11.270Z,18.83
2023-04-18T22:52:39.717Z,19.23
2023-04-18T22:55:10.383Z,17.67
2023-04-18T22:57:39.698Z,16.13
2023-04-18T23:00:11.072Z,19.83
2023-04-18T23:02:39.997Z,18.13
2023-04-18T23:05:10.862Z,16.17
2023-04-18T23:07:39.328Z,20.30
2023-04-18T23:10:10.891Z,16.87
2023-04-18T23:12:39.426Z,17.10
2023-04-18T23:15:08.857Z,18.67
2023-04-18T23:17:37.429Z,17.40
2023-04-18T23:20:07.690Z,18.10
2023-04-18T23:22:36.236Z,17.27
2023-04-18T23:25:04.830Z,16.43
2023-04-18T23:27:34.650Z,12.90
2023-04-18T23:30:02.880Z,15.93
2023-04-18T23:32:31.358Z,20.33
2023-04-18T23:35:04.059Z,18.03
2023-04-18T23:37:32.854Z,16.10
2023-04-18T23:40:01.355Z,20.53
2023-04-18T23:42:29.845Z,16.90
2023-04-18T23:44:59.468Z,13.80
2023-04-18T23:47:28.084Z,16.73
2023-04-18T23:49:56.534Z,17.13
2023-04-18T23:52:25.178Z,15.30
2023-04-18T23:54:53.367Z,18.03
2023-04-18T23:57:22.018Z,12.40
2023-04-18T23:59:50.315Z,14.90
